Liverpool, Texas
Current Conditions -  °F | °C
As of 2:53 AM on Sunday 23 Nov 2014 (Local Time) from KLVJ Reporting Station
Clear Clear  
Wind Chill: 63°   Ceiling: Unl
Heat Index: 63°   Visibility: 10mi
Dew Point: 61°   Wind: 5mph
Humidity: 93%   Direction: 200°SSW
Pressure: 29.69"   Gusts: NA
Location:  29.29°N, 95.28°W
Report Text: KLVJ 230853Z AUTO 20004KT 10SM CLR 17/16 A2969 RMK AO2 SLP052 60027 T01720161 55029
Loading
Personal Weather Stations






























Interactive Weather Map New forecast layout! Learn more

10-Day Weather Forecast

Advertisements
Track Severe Weather on mobile